»·PEaware :: DAL450 KPDX-KSFO

DAL450 :: KPDX-KSFO

FLIGHT INFORMATION

Flight Status: Arrived
Operator:
Delta Air Lines
More flights by this operator :: More flights under this callsign
Pilot: Sergei F. (8485)
Aircraft: BOEING 757-200
(B752)
More flights by this aircraft type
Origin: KPDX Portland Intl
United States
Destination: KSFO San Francisco Intl
United States
More flights between these airports :: More routes between these airports
Route: +MINNE5 FAMUK Q3 FOWND MLBEC BDEGA2
File this flight plan on PilotEdge
Remarks:
Altitude:
(Current/Filed)
30,000ft
Speed:
(Current/Filed)
300kts
Departed: 05-Jan-18 08:04 PM
Arrived: 05-Jan-18 09:37 PM
Distance/Time
Traveled:
478nm/1:33
Distance/Time
To Go:
Arrived

Flight Plot

Page will automatically refresh every two minutes.


Map Options




Map Legend


Flown Route
Filed Route
Departure Airport
Arrival Airport
Navaid (VOR, NDB)
Fix

Horizontal Profiles

Position Reports

Time Latitude Longitude Heading Altitude Ground
Speed
05-Jan-18 19:31 45.591163 -122.594084 207 28ft 0kts
05-Jan-18 19:32 45.591163 -122.594084 207 28ft 0kts
05-Jan-18 19:33 45.591163 -122.594084 207 28ft 0kts
05-Jan-18 19:34 45.591163 -122.594084 207 28ft 0kts
05-Jan-18 19:35 45.591163 -122.594084 207 28ft 0kts
05-Jan-18 19:36 45.591163 -122.594084 207 28ft 0kts
05-Jan-18 19:37 45.591163 -122.594084 207 28ft 0kts
05-Jan-18 19:38 45.591163 -122.594084 207 28ft 0kts
05-Jan-18 19:39 45.591163 -122.594084 207 28ft 0kts
05-Jan-18 19:40 45.591163 -122.594084 207 28ft 0kts
05-Jan-18 19:41 45.591163 -122.594084 207 28ft 0kts
05-Jan-18 19:42 45.591163 -122.594084 207 28ft 0kts
05-Jan-18 19:43 45.591163 -122.594084 207 28ft 0kts
05-Jan-18 19:44 45.591163 -122.594084 207 28ft 0kts
05-Jan-18 19:45 45.591163 -122.594084 207 28ft 0kts
05-Jan-18 19:46 45.591163 -122.594084 207 28ft 0kts
05-Jan-18 19:47 45.591163 -122.594084 207 28ft 0kts
05-Jan-18 19:48 45.591163 -122.594084 207 28ft 0kts
05-Jan-18 19:49 45.591163 -122.594084 207 28ft 0kts
05-Jan-18 19:50 45.591163 -122.594084 207 28ft 0kts
05-Jan-18 19:51 45.591163 -122.594084 207 28ft 0kts
05-Jan-18 19:52 45.591163 -122.594084 207 28ft 0kts
05-Jan-18 19:55 45.591163 -122.594084 0 28ft 0kts
05-Jan-18 19:56 45.591163 -122.594084 207 28ft 0kts
05-Jan-18 19:57 45.591163 -122.594084 207 28ft 0kts
05-Jan-18 19:58 45.591163 -122.594084 207 28ft 0kts
05-Jan-18 19:59 45.591163 -122.594084 207 28ft 0kts
05-Jan-18 20:00 45.591163 -122.594084 207 28ft 0kts
05-Jan-18 20:01 45.591222 -122.594041 207 28ft 3kts
05-Jan-18 20:02 45.591839 -122.593511 252 28ft 1kts
05-Jan-18 20:03 45.591811 -122.593135 305 28ft 0kts
05-Jan-18 20:04 45.592596 -122.595340 297 30ft 12kts
05-Jan-18 20:05 45.594368 -122.597610 43 31ft 0kts
05-Jan-18 20:06 45.594681 -122.597110 56 31ft 16kts
05-Jan-18 20:07 45.594721 -122.595525 114 31ft 0kts
05-Jan-18 20:08 45.594721 -122.595525 114 31ft 0kts
05-Jan-18 20:09 45.594721 -122.595525 114 31ft 0kts
05-Jan-18 20:10 45.585292 -122.571047 114 620ft 148kts
05-Jan-18 20:11 45.576030 -122.524575 102 2260ft 149kts
05-Jan-18 20:12 45.564174 -122.452654 106 3990ft 193kts
05-Jan-18 20:13 45.549510 -122.371733 109 6129ft 234kts
05-Jan-18 20:14 45.514951 -122.323902 174 8421ft 233kts
05-Jan-18 20:15 45.436077 -122.319918 203 10563ft 286kts
05-Jan-18 20:16 45.395940 -122.400675 252 12773ft 335kts
05-Jan-18 20:17 45.363294 -122.526361 245 16210ft 350kts
05-Jan-18 20:18 45.316511 -122.675812 244 19082ft 368kts
05-Jan-18 20:19 45.280612 -122.787669 244 21071ft 381kts
05-Jan-18 20:20 45.229774 -122.921952 228 23162ft 400kts
05-Jan-18 20:21 45.128876 -122.993474 191 24970ft 433kts
05-Jan-18 20:22 45.008994 -123.018915 193 26820ft 444kts
05-Jan-18 20:23 44.887428 -123.046801 194 28477ft 455kts
05-Jan-18 20:24 44.763053 -123.075468 194 30416ft 455kts
05-Jan-18 20:25 44.637395 -123.104386 193 31140ft 460kts
05-Jan-18 20:26 44.512424 -123.132584 190 31143ft 459kts
05-Jan-18 20:27 44.384649 -123.131462 183 31161ft 461kts
05-Jan-18 20:28 44.257941 -123.127143 183 31180ft 461kts
05-Jan-18 20:29 44.130307 -123.122635 183 31181ft 461kts
05-Jan-18 20:30 44.003141 -123.118140 183 31181ft 461kts
05-Jan-18 20:31 43.876414 -123.113674 183 31182ft 461kts
05-Jan-18 20:32 43.749309 -123.109211 183 31182ft 461kts
05-Jan-18 20:33 43.622446 -123.104780 183 31193ft 460kts
05-Jan-18 20:34 43.495234 -123.100355 183 31227ft 460kts
05-Jan-18 20:35 43.367582 -123.095932 183 31227ft 460kts
05-Jan-18 20:36 43.240456 -123.091546 183 31227ft 459kts
05-Jan-18 20:37 43.113147 -123.087175 183 31227ft 459kts
05-Jan-18 20:38 42.986601 -123.082823 183 31223ft 455kts
05-Jan-18 20:39 42.864024 -123.078634 184 31228ft 445kts
05-Jan-18 20:40 42.740053 -123.074450 184 31205ft 444kts
05-Jan-18 20:41 42.616621 -123.070282 184 31203ft 445kts
05-Jan-18 20:42 42.493290 -123.066120 184 31203ft 444kts
05-Jan-18 20:43 42.370380 -123.062137 184 31199ft 444kts
05-Jan-18 20:44 42.247098 -123.058144 184 31200ft 443kts
05-Jan-18 20:45 42.124174 -123.054187 184 31199ft 444kts
05-Jan-18 20:46 42.001814 -123.050255 184 31189ft 443kts
05-Jan-18 20:47 41.880627 -123.046388 185 31187ft 442kts
05-Jan-18 20:48 41.758134 -123.042491 185 31168ft 442kts
05-Jan-18 20:49 41.635527 -123.038601 185 31165ft 442kts
05-Jan-18 20:50 41.513537 -123.034752 185 31164ft 440kts
05-Jan-18 20:51 41.391685 -123.030919 185 31168ft 438kts
05-Jan-18 20:52 41.270290 -123.027177 185 31164ft 438kts
05-Jan-18 20:53 41.149702 -123.023527 185 31165ft 439kts
05-Jan-18 20:54 41.029824 -123.019771 187 31169ft 420kts
05-Jan-18 20:55 40.916821 -123.016397 190 31179ft 402kts
05-Jan-18 20:56 40.810483 -123.013301 190 31194ft 401kts
05-Jan-18 20:57 40.699235 -123.009993 190 31197ft 405kts
05-Jan-18 20:58 40.587533 -123.006664 190 31191ft 403kts
05-Jan-18 20:59 40.475555 -123.003349 190 31195ft 404kts
05-Jan-18 21:00 40.363557 -123.000061 190 31192ft 404kts
05-Jan-18 21:01 40.252404 -122.996790 190 31199ft 406kts
05-Jan-18 21:02 40.141564 -122.993516 190 31208ft 402kts
05-Jan-18 21:03 40.030035 -122.990257 190 31213ft 404kts
05-Jan-18 21:04 39.918084 -122.986992 190 31213ft 405kts
05-Jan-18 21:05 39.809080 -122.984045 192 31226ft 399kts
05-Jan-18 21:06 39.717332 -123.037651 238 31252ft 359kts
05-Jan-18 21:07 39.718543 -123.167827 274 31240ft 384kts
05-Jan-18 21:08 39.743587 -123.302483 273 31238ft 383kts
05-Jan-18 21:09 39.708618 -123.414980 212 31252ft 369kts
05-Jan-18 21:10 39.600714 -123.392886 168 31231ft 438kts
05-Jan-18 21:11 39.491146 -123.327033 168 31230ft 437kts
05-Jan-18 21:12 39.380904 -123.260731 168 31231ft 439kts
05-Jan-18 21:13 39.270791 -123.194658 168 31250ft 437kts
05-Jan-18 21:14 39.160432 -123.128712 168 31246ft 441kts
05-Jan-18 21:15 39.049782 -123.062830 168 30744ft 443kts
05-Jan-18 21:16 38.939475 -122.997286 166 29684ft 436kts
05-Jan-18 21:17 38.834787 -122.946347 177 28950ft 420kts
05-Jan-18 21:18 38.722856 -122.913789 176 26925ft 397kts
05-Jan-18 21:19 38.620378 -122.883667 175 25373ft 381kts
05-Jan-18 21:20 38.519889 -122.854078 175 23743ft 367kts
05-Jan-18 21:21 38.421918 -122.825282 174 22268ft 360kts
05-Jan-18 21:22 38.325707 -122.797068 174 20790ft 353kts
05-Jan-18 21:23 38.230972 -122.769367 173 19336ft 346kts
05-Jan-18 21:24 38.138631 -122.742493 173 17697ft 339kts
05-Jan-18 21:25 38.047675 -122.716109 172 16050ft 334kts
05-Jan-18 21:26 37.959029 -122.690442 171 14532ft 326kts
05-Jan-18 21:27 37.877566 -122.649629 144 13121ft 334kts
05-Jan-18 21:28 37.808029 -122.576248 144 11893ft 320kts
05-Jan-18 21:29 37.744857 -122.509431 144 11157ft 295kts
05-Jan-18 21:30 37.685206 -122.446061 143 11005ft 293kts
05-Jan-18 21:31 37.625749 -122.382921 143 9915ft 294kts
05-Jan-18 21:32 37.560259 -122.336449 157 8692ft 277kts
05-Jan-18 21:33 37.495892 -122.295535 155 7002ft 264kts
05-Jan-18 21:34 37.435296 -122.257061 154 5479ft 254kts
05-Jan-18 21:35 37.418070 -122.189278 62 4100ft 227kts
05-Jan-18 21:36 37.460640 -122.144053 33 3687ft 197kts
05-Jan-18 21:37 37.504781 -122.124776 326 3017ft 169kts
05-Jan-18 21:38 37.531312 -122.168147 299 3013ft 159kts
05-Jan-18 21:39 37.551281 -122.214926 298 2528ft 141kts
05-Jan-18 21:40 37.569184 -122.257285 298 1818ft 137kts
05-Jan-18 21:41 37.586813 -122.300260 298 1100ft 137kts
05-Jan-18 21:42 37.604838 -122.342431 299 327ft 136kts
05-Jan-18 21:43 37.618816 -122.375597 285 26ft 30kts
05-Jan-18 21:44 37.618950 -122.378447 267 31ft 7kts
05-Jan-18 21:45 37.616976 -122.379514 193 33ft 10kts
05-Jan-18 21:46 37.616114 -122.381758 270 34ft 7kts
05-Jan-18 21:47 37.615545 -122.382637 223 34ft 0kts

Navigation Log

Ident Type
1. KPDX Airport
2. RIVRR Fix
3. COSUG Fix
4. BISLE Fix
5. MINNE Fix
6. FAMUK Fix
7. FAMUK Navaid
8. FRFLY Navaid
9. FINER Navaid
10. FOWND Navaid
11. MLBEC Fix
12. JONNE Fix
13. BGGLO Fix
14. LOZIT Fix
15. BDEGA Fix
16. CORKK Fix
17. BRIXX Fix
18. KSFO Airport